Time;durP1;ratioP1;P1;durP2;ratioP2;P2;SDS_P1;SDS_P2;PMS_P1;PMS_P2;Temp;Humidity;BMP_temperature;BMP_pressure;BME280_temperature;BME280_humidity;BME280_pressure;Samples;Min_cycle;Max_cycle;Signal;HPM_P1;HPM_P2
2022/02/11 07:41:02;;;;;;;;;9.25;6.25;;;;;16.64;58.09;102928.53;5070960;27;45510;-76
2022/02/11 07:43:28;;;;;;;;;10.75;4.75;;;;;16.83;58.22;102933.94;5081445;27;45547;-75
2022/02/11 07:45:53;;;;;;;;;7.50;7.00;;;;;17.04;57.97;102942.81;5088019;27;45815;-75
2022/02/11 07:48:19;;;;;;;;;8.00;6.25;;;;;17.28;57.69;102944.44;5086561;27;45432;-77
2022/02/11 07:50:44;;;;;;;;;8.25;5.00;;;;;17.51;57.85;102943.31;5081217;27;46246;-74
2022/02/11 07:53:10;;;;;;;;;5.00;5.00;;;;;17.76;57.20;102944.81;5081048;27;45545;-73
2022/02/11 07:55:35;;;;;;;;;18.00;13.25;;;;;18.02;57.18;102940.81;5076719;27;45998;-74
2022/02/11 07:58:00;;;;;;;;;9.00;8.25;;;;;18.29;56.75;102937.69;5079617;27;47160;-75
2022/02/11 08:00:26;;;;;;;;;11.25;9.25;;;;;18.55;56.76;102948.88;5079594;27;46326;-79
2022/02/11 08:02:52;;;;;;;;;9.00;7.25;;;;;18.79;56.69;102951.19;5081540;27;45549;-79
2022/02/11 08:05:17;;;;;;;;;11.25;7.50;;;;;19.03;56.11;102948.13;5077280;27;45542;-80
2022/02/11 08:07:44;;;;;;;;;8.00;6.00;;;;;19.25;55.81;102955.03;5081557;27;46068;-79
2022/02/11 08:10:10;;;;;;;;;9.00;9.00;;;;;19.45;54.87;102956.59;5086481;27;45584;-75
2022/02/11 08:12:35;;;;;;;;;6.00;5.00;;;;;19.62;54.41;102954.78;5080078;27;45462;-77
2022/02/11 08:15:03;;;;;;;;;11.33;6.33;;;;;19.80;54.87;102966.31;5081250;27;46011;-77
2022/02/11 08:17:28;;;;;;;;;8.33;6.33;;;;;19.96;53.96;102968.09;5081977;27;45455;-76
2022/02/11 08:19:54;;;;;;;;;7.00;5.67;;;;;20.12;54.33;102974.34;5084011;27;46084;-76
2022/02/11 08:22:19;;;;;;;;;6.67;5.33;;;;;20.26;53.95;102984.31;5079261;27;45605;-77
2022/02/11 08:24:44;;;;;;;;;6.67;6.00;;;;;20.39;53.77;102995.22;5076104;27;45367;-76
2022/02/11 08:27:13;;;;;;;;;8.00;7.00;;;;;20.52;53.12;102998.03;5083358;27;51265;-77
2022/02/11 08:29:39;;;;;;;;;6.00;6.00;;;;;20.64;53.41;102995.56;5083654;27;45513;-77
2022/02/11 08:32:05;;;;;;;;;10.33;7.00;;;;;20.75;53.19;102995.75;5084110;27;46103;-78
2022/02/11 08:34:30;;;;;;;;;5.67;5.67;;;;;20.85;52.66;102998.72;5080397;27;45856;-77
2022/02/11 08:36:56;;;;;;;;;10.67;7.00;;;;;20.95;52.77;103012.56;5084037;27;45485;-78
2022/02/11 08:39:21;;;;;;;;;9.00;7.33;;;;;21.02;52.17;103010.34;5073355;27;51141;-77
2022/02/11 08:41:48;;;;;;;;;5.33;5.00;;;;;21.11;52.58;103015.19;5082050;27;45593;-78
2022/02/11 08:44:13;;;;;;;;;10.33;5.00;;;;;21.19;52.15;103017.38;5076296;27;45470;-78
2022/02/11 08:46:39;;;;;;;;;7.00;6.33;;;;;21.25;52.14;103021.53;5073026;27;45494;-77
2022/02/11 08:49:04;;;;;;;;;8.00;6.00;;;;;21.31;51.77;103024.72;5074148;27;45489;-77
2022/02/11 08:51:30;;;;;;;;;8.33;7.67;;;;;21.38;51.72;103030.56;5064771;27;45966;-76
2022/02/11 08:53:56;;;;;;;;;7.33;6.00;;;;;21.44;51.46;103029.31;5065922;27;45935;-78
2022/02/11 08:56:22;;;;;;;;;6.00;6.00;;;;;21.49;51.20;103045.25;5077362;27;45511;-79
2022/02/11 08:58:48;;;;;;;;;7.00;7.00;;;;;21.56;50.83;103038.47;5070514;27;45522;-76
2022/02/11 09:01:13;;;;;;;;;8.33;6.33;;;;;21.58;49.57;103040.09;5065173;27;49700;-79
2022/02/11 09:03:39;;;;;;;;;8.67;6.00;;;;;21.56;49.34;103025.81;5064221;27;45582;-74
2022/02/11 09:37:17;;;;;;;;;11.50;6.25;;;;;19.27;50.98;103074.28;5049171;27;45434;-78
2022/02/11 09:39:42;;;;;;;;;6.67;6.33;;;;;19.32;51.59;103079.41;5045371;28;45565;-78
2022/02/11 09:42:08;;;;;;;;;6.25;6.00;;;;;19.44;51.40;103080.56;5064469;27;46798;-78
2022/02/11 09:44:35;;;;;;;;;8.33;8.33;;;;;19.57;51.50;103078.06;5052495;27;45778;-77
2022/02/11 09:47:00;;;;;;;;;13.00;8.75;;;;;19.73;51.68;103078.97;5042351;27;47206;-78
2022/02/11 09:49:25;;;;;;;;;11.75;10.50;;;;;19.87;51.36;103072.78;5039353;27;45640;-77
2022/02/11 09:51:53;;;;;;;;;8.00;6.00;;;;;20.05;50.83;103078.13;5045104;28;45422;-76
2022/02/11 09:54:21;;;;;;;;;10.00;8.67;;;;;20.20;50.86;103083.56;5028232;27;45464;-77
2022/02/11 09:56:50;;;;;;;;;9.00;6.67;;;;;20.36;50.40;103089.78;5044680;27;47291;-75
2022/02/11 09:59:15;;;;;;;;;5.00;5.00;;;;;20.51;50.13;103087.16;5013400;27;45953;-76
2022/02/11 10:01:42;;;;;;;;;9.75;8.75;;;;;20.65;50.17;103095.28;5033847;27;45542;-75
2022/02/11 10:04:16;;;;;;;;;9.67;6.33;;;;;20.82;50.14;103100.63;5053504;27;45545;-72
2022/02/11 10:06:43;;;;;;;;;9.67;7.67;;;;;20.94;50.01;103094.53;5030480;27;45348;-74
2022/02/11 10:09:09;;;;;;;;;9.00;4.67;;;;;21.06;49.69;103099.16;5038319;27;45931;-74
2022/02/11 10:11:35;;;;;;;;;8.00;6.00;;;;;21.16;49.81;103095.88;5030303;27;45893;-74
2022/02/11 10:14:21;;;;;;;;;4.00;4.00;;;;;21.26;49.25;103097.03;5038025;27;45598;-75
2022/02/11 10:17:02;;;;;;;;;7.33;6.67;;;;;21.36;49.11;103096.47;5032137;27;45496;-75
2022/02/11 10:19:44;;;;;;;;;10.00;7.00;;;;;21.47;49.06;103096.69;5048679;27;45599;-73
2022/02/11 10:22:11;;;;;;;;;5.67;5.33;;;;;21.56;48.82;103106.00;5029166;27;45273;-75
2022/02/11 10:24:37;;;;;;;;;12.33;7.33;;;;;21.62;49.41;103097.50;5033453;27;45481;-75
2022/02/11 10:27:27;;;;;;;;;7.00;7.00;;;;;21.73;48.59;103104.13;5033605;27;46226;-76
2022/02/11 10:30:01;;;;;;;;;5.33;5.00;;;;;21.79;48.85;103106.41;5033092;27;45579;-76
2022/02/11 10:32:41;;;;;;;;;7.67;6.00;;;;;21.87;48.03;103098.69;5046474;27;45338;-76
2022/02/11 10:35:09;;;;;;;;;8.67;7.67;;;;;21.90;47.83;103098.47;5048572;27;45496;-75
2022/02/11 10:37:35;;;;;;;;;7.00;6.00;;;;;21.96;47.51;103098.03;5050594;27;47187;-74
2022/02/11 10:40:01;;;;;;;;;7.33;7.00;;;;;22.02;47.61;103101.34;5010523;27;45419;-75
2022/02/11 10:42:46;;;;;;;;;9.00;6.67;;;;;22.06;47.80;103105.56;5034012;28;45508;-75
2022/02/11 10:45:37;;;;;;;;;6.00;6.00;;;;;22.14;47.90;103118.59;5031194;27;45495;-75
2022/02/11 10:48:14;;;;;;;;;8.33;6.67;;;;;22.20;47.37;103116.31;5023619;27;45564;-76
2022/02/11 10:50:44;;;;;;;;;19.33;13.00;;;;;22.25;46.90;103111.47;5018714;27;45489;-78
2022/02/11 10:53:10;;;;;;;;;14.67;9.67;;;;;22.25;46.24;103116.03;5017946;27;45335;-78
2022/02/11 10:55:50;;;;;;;;;18.33;12.67;;;;;22.25;45.96;103116.88;5067953;27;45696;-78
2022/02/11 10:58:16;;;;;;;;;11.33;11.33;;;;;22.26;46.34;103115.06;4997277;27;46390;-76
2022/02/11 11:00:42;;;;;;;;;19.00;13.33;;;;;22.30;46.33;103122.00;5029491;28;45599;-75
2022/02/11 11:03:10;;;;;;;;;10.33;8.67;;;;;22.30;45.85;103132.81;5031841;27;45611;-74
2022/02/11 11:05:38;;;;;;;;;20.67;17.00;;;;;22.30;45.32;103135.53;5031658;27;45521;-72
2022/02/11 11:08:04;;;;;;;;;18.00;17.33;;;;;22.30;45.52;103131.94;5025103;27;45538;-71
2022/02/11 11:10:31;;;;;;;;;15.00;12.00;;;;;22.29;45.49;103125.69;5027716;27;45554;-72
2022/02/11 11:12:57;;;;;;;;;19.33;13.00;;;;;22.30;45.42;103129.22;5030389;27;45485;-77
2022/02/11 11:15:24;;;;;;;;;18.00;10.67;;;;;22.29;45.05;103133.81;5022855;27;46170;-77
2022/02/11 11:17:51;;;;;;;;;20.67;14.33;;;;;22.28;45.37;103131.19;5029563;27;46056;-76
2022/02/11 11:20:20;;;;;;;;;16.33;14.00;;;;;22.28;45.64;103128.47;5025005;28;45349;-77
2022/02/11 11:22:51;;;;;;;;;13.67;11.67;;;;;22.27;45.31;103118.63;5026038;27;45466;-77
2022/02/11 11:25:16;;;;;;;;;18.67;13.00;;;;;22.30;45.56;103123.81;5016454;27;45450;-76
2022/02/11 11:27:50;;;;;;;;;16.67;13.67;;;;;22.33;45.81;103120.94;5027320;27;45979;-77
2022/02/11 11:30:23;;;;;;;;;18.00;14.67;;;;;22.36;45.64;103121.59;5030256;27;45438;-77
2022/02/11 11:33:22;;;;;;;;;18.00;14.00;;;;;22.40;45.74;103119.53;5023429;27;45506;-76
2022/02/11 11:35:47;;;;;;;;;20.00;16.67;;;;;22.43;45.52;103116.63;5045781;28;45409;-77
2022/02/11 11:38:17;;;;;;;;;18.67;16.00;;;;;22.47;45.64;103118.16;5043958;28;45341;-76
2022/02/11 11:41:10;;;;;;;;;19.00;14.33;;;;;22.49;45.82;103118.91;5031365;28;45508;-73
2022/02/11 11:43:49;;;;;;;;;23.67;16.33;;;;;22.53;45.04;103124.13;5046029;28;45511;-77
2022/02/11 11:46:17;;;;;;;;;20.33;17.33;;;;;22.54;45.23;103125.88;5046353;28;45783;-78
2022/02/11 11:49:00;;;;;;;;;21.25;19.00;;;;;22.55;45.74;103127.63;5037987;28;45476;-78
2022/02/11 11:51:35;;;;;;;;;21.33;16.00;;;;;22.55;45.88;103123.06;5049878;28;45603;-77
2022/02/11 11:54:24;;;;;;;;;20.75;13.75;;;;;22.56;45.37;103124.81;5046168;28;45419;-78
2022/02/11 11:57:08;;;;;;;;;24.25;18.00;;;;;22.57;45.70;103125.69;5045388;28;45463;-78
2022/02/11 11:59:55;;;;;;;;;22.67;17.67;;;;;22.60;45.91;103120.06;5042225;28;47064;-80
2022/02/11 12:02:35;;;;;;;;;17.33;13.33;;;;;22.62;46.02;103121.72;5026445;28;45555;-79
2022/02/11 12:05:02;;;;;;;;;20.00;18.00;;;;;22.69;45.68;103126.69;5048676;28;45594;-77
2022/02/11 12:07:35;;;;;;;;;25.33;20.00;;;;;22.72;45.93;103126.50;5045841;28;45610;-82
2022/02/11 12:10:12;;;;;;;;;24.33;16.00;;;;;22.79;46.22;103121.50;5029952;28;47305;-82
2022/02/11 12:12:37;;;;;;;;;18.00;16.33;;;;;22.83;45.83;103104.06;5030353;27;45593;-80
2022/02/11 12:15:06;;;;;;;;;19.67;13.67;;;;;22.90;46.01;103105.38;5024311;27;45969;-79
2022/02/11 12:17:32;;;;;;;;;17.67;15.00;;;;;22.93;45.97;103107.00;5020035;27;45507;-79
2022/02/11 12:19:58;;;;;;;;;20.00;14.67;;;;;23.01;46.32;103115.47;5031830;27;46607;-78
2022/02/11 12:22:26;;;;;;;;;17.67;12.67;;;;;23.06;46.24;103107.88;5021430;27;45398;-78
2022/02/11 12:27:40;;;;;;;;;19.33;13.33;;;;;23.21;46.14;103097.78;5026305;28;45491;-77
2022/02/11 12:30:27;;;;;;;;;16.33;14.00;;;;;23.25;46.35;103096.59;5008879;27;48530;-78
2022/02/11 12:32:57;;;;;;;;;15.00;12.33;;;;;23.36;46.12;103100.41;5017665;27;45776;-78
2022/02/11 12:35:26;;;;;;;;;20.67;13.33;;;;;23.43;46.25;103109.84;5017371;27;45351;-78
2022/02/11 12:37:51;;;;;;;;;14.67;9.67;;;;;23.49;45.99;103113.94;5023779;27;45422;-77
2022/02/11 12:40:27;;;;;;;;;20.33;14.33;;;;;23.51;46.20;103103.88;5025512;27;46523;-78
2022/02/11 12:42:55;;;;;;;;;18.33;14.33;;;;;23.56;46.00;103101.69;5033362;28;45460;-87
2022/02/11 12:45:43;;;;;;;;;16.00;11.67;;;;;23.56;46.04;103101.69;4997838;27;45378;-84
2022/02/11 12:48:13;;;;;;;;;15.00;13.33;;;;;23.61;45.96;103106.75;5022706;27;49303;-87
2022/02/11 12:50:53;;;;;;;;;15.00;10.67;;;;;23.62;46.27;103106.66;5031388;27;47562;-83
2022/02/11 12:53:19;;;;;;;;;14.00;10.67;;;;;23.62;46.09;103111.22;5019862;28;53601;-84
2022/02/11 12:55:49;;;;;;;;;13.67;12.33;;;;;23.61;46.07;103106.75;5025836;27;45418;-85
2022/02/11 12:58:15;;;;;;;;;14.00;13.00;;;;;23.60;46.02;103099.59;5027625;27;45322;-84
2022/02/11 13:00:42;;;;;;;;;15.00;10.00;;;;;23.63;46.04;103102.94;5005245;27;46483;-81
2022/02/11 13:03:10;;;;;;;;;13.67;10.33;;;;;23.65;46.14;103098.31;5012623;27;45627;-81
2022/02/11 13:05:52;;;;;;;;;12.67;9.00;;;;;23.68;46.24;103092.66;5041606;27;45506;-81
2022/02/11 13:08:23;;;;;;;;;11.67;7.67;;;;;23.73;45.92;103092.31;5027548;27;45832;-80
2022/02/11 13:10:56;;;;;;;;;16.00;10.33;;;;;23.78;46.32;103091.97;5007737;27;46186;-82
2022/02/11 13:13:21;;;;;;;;;10.00;8.00;;;;;23.82;46.17;103098.88;5024086;27;45488;-80
2022/02/11 13:15:47;;;;;;;;;9.67;9.00;;;;;23.87;46.07;103098.56;5016281;28;45410;-80
2022/02/11 13:18:18;;;;;;;;;8.67;8.67;;;;;23.90;45.88;103098.31;5000615;27;45552;-80
2022/02/11 13:20:55;;;;;;;;;11.33;10.33;;;;;23.95;46.01;103098.88;5022106;27;47539;-82
2022/02/11 13:23:23;;;;;;;;;13.33;11.33;;;;;23.99;46.19;103091.38;5032437;27;45488;-82
2022/02/11 13:25:50;;;;;;;;;14.33;10.00;;;;;24.01;45.01;103100.25;5036882;27;45681;-83
2022/02/11 13:28:18;;;;;;;;;17.00;12.67;;;;;23.95;44.04;103102.44;5028548;27;45552;-87
2022/02/11 13:30:47;;;;;;;;;25.67;17.33;;;;;23.88;44.72;103095.75;5010633;28;46663;-80
2022/02/11 13:33:26;;;;;;;;;17.67;13.33;;;;;23.84;44.86;103091.53;5011935;27;45506;-82
2022/02/11 13:35:54;;;;;;;;;23.00;13.33;;;;;23.81;44.98;103095.34;5018844;27;45825;-82
2022/02/11 13:38:21;;;;;;;;;19.67;12.00;;;;;23.81;44.99;103087.19;5013434;27;46206;-80
2022/02/11 13:40:52;;;;;;;;;14.67;12.67;;;;;23.80;44.80;103085.44;5019782;27;47238;-82
2022/02/11 13:43:18;;;;;;;;;20.33;17.33;;;;;23.80;45.16;103081.88;5019136;27;50303;-82
2022/02/11 13:45:57;;;;;;;;;15.33;11.00;;;;;23.81;45.18;103081.78;5021084;28;45489;-83
2022/02/11 13:48:25;;;;;;;;;15.00;10.67;;;;;23.83;45.12;103078.97;5013885;28;45455;-83
2022/02/11 13:50:57;;;;;;;;;21.33;12.33;;;;;23.87;44.87;103077.72;5016392;27;45419;-78
2022/02/11 13:53:36;;;;;;;;;14.67;10.67;;;;;23.88;45.42;103074.06;5017869;27;45509;-79
2022/02/11 13:56:04;;;;;;;;;15.33;11.33;;;;;23.90;45.36;103065.78;5019130;27;48904;-85
2022/02/11 13:58:30;;;;;;;;;12.00;10.33;;;;;23.94;45.16;103072.69;5019669;27;45448;-84
2022/02/11 14:00:55;;;;;;;;;12.00;10.00;;;;;23.97;45.69;103063.47;5022247;28;46131;-83
2022/02/11 14:03:26;;;;;;;;;18.00;11.33;;;;;24.00;45.56;103065.97;5015159;28;45428;-83
2022/02/11 14:06:00;;;;;;;;;14.33;8.00;;;;;24.04;45.52;103062.03;5014856;28;45636;-84
2022/02/11 14:08:40;;;;;;;;;14.00;10.33;;;;;24.05;45.22;103067.34;5032484;27;47309;-89
2022/02/11 14:11:21;;;;;;;;;11.67;10.33;;;;;24.09;45.41;103073.44;5022230;28;45626;-81
2022/02/11 14:13:48;;;;;;;;;15.67;10.67;;;;;24.07;45.35;103065.38;5013585;28;45500;-81
2022/02/11 14:16:15;;;;;;;;;12.67;8.33;;;;;24.08;45.28;103063.53;5016391;28;45567;-81
2022/02/11 14:18:42;;;;;;;;;11.33;8.00;;;;;24.05;45.28;103059.22;5024782;28;45581;-82
2022/02/11 14:21:11;;;;;;;;;14.00;10.00;;;;;24.04;45.59;103057.47;5025605;28;45417;-81
2022/02/11 14:23:36;;;;;;;;;13.00;9.00;;;;;24.04;45.36;103060.19;5027769;27;47465;-85
2022/02/11 14:26:02;;;;;;;;;11.67;9.33;;;;;24.05;45.31;103053.78;5028118;28;45891;-85
2022/02/11 14:28:29;;;;;;;;;13.00;10.33;;;;;24.07;45.50;103053.66;5015894;27;45330;-86
2022/02/11 14:30:55;;;;;;;;;13.33;8.33;;;;;24.10;45.62;103049.91;5029163;27;45640;-84
2022/02/11 14:33:20;;;;;;;;;10.00;8.67;;;;;24.11;45.55;103054.34;5018407;28;45340;-82
2022/02/11 14:35:46;;;;;;;;;8.67;8.33;;;;;24.10;45.45;103047.19;5018152;28;45510;-83
2022/02/11 14:38:12;;;;;;;;;13.67;10.00;;;;;24.06;45.62;103050.09;5027143;28;45527;-84
2022/02/11 14:43:25;;;;;;;;;9.67;7.67;;;;;24.01;45.85;103059.56;4958261;28;45667;-82
2022/02/11 14:45:51;;;;;;;;;6.00;6.00;;;;;23.95;45.38;103050.06;4966554;28;45413;-83
2022/02/11 14:48:16;;;;;;;;;11.67;8.33;;;;;23.91;45.45;103048.53;4947397;28;45482;-85
2022/02/11 14:50:42;;;;;;;;;10.33;9.00;;;;;23.88;45.32;103043.34;4956797;28;45553;-76
2022/02/11 14:53:07;;;;;;;;;10.67;9.00;;;;;23.84;45.28;103044.53;4948646;28;45446;-82
2022/02/11 14:55:32;;;;;;;;;12.33;10.00;;;;;23.79;44.85;103050.34;4956607;28;45669;-72
2022/02/11 14:57:58;;;;;;;;;24.67;15.67;;;;;23.71;43.71;103059.03;4966713;28;45687;-79
2022/02/11 15:00:24;;;;;;;;;53.50;33.25;;;;;23.58;42.85;103050.91;4957054;28;47011;-78
2022/02/11 15:02:50;;;;;;;;;46.33;33.00;;;;;23.46;42.51;103046.41;4949425;28;45649;-79
2022/02/11 15:05:16;;;;;;;;;61.50;37.75;;;;;23.31;42.05;103041.13;4948189;28;45673;-78
2022/02/11 15:07:44;;;;;;;;;53.50;34.25;;;;;23.20;42.40;103044.59;4936476;28;45502;-76
2022/02/11 15:10:10;;;;;;;;;51.33;33.67;;;;;23.11;42.39;103043.41;4959485;28;45458;-73
2022/02/11 15:12:35;;;;;;;;;54.25;34.25;;;;;23.00;42.81;103049.59;4956679;28;45861;-83
2022/02/11 15:15:01;;;;;;;;;45.25;30.00;;;;;22.99;42.95;103052.41;4948811;28;45434;-80
2022/02/11 15:17:26;;;;;;;;;42.25;30.00;;;;;22.99;43.42;103047.88;4944088;28;45799;-78
2022/02/11 15:19:51;;;;;;;;;55.25;31.75;;;;;23.02;43.74;103035.94;4975393;28;45429;-79
2022/02/11 15:22:17;;;;;;;;;44.00;30.00;;;;;23.07;43.85;103035.59;5010412;27;50048;-78
2022/02/11 15:24:48;;;;;;;;;37.75;25.50;;;;;23.11;43.86;103039.84;5020405;28;50478;-77
2022/02/11 15:27:14;;;;;;;;;41.75;29.50;;;;;23.14;43.60;103037.75;5030318;27;45365;-77
2022/02/11 15:29:40;;;;;;;;;35.00;22.33;;;;;23.21;44.23;103045.47;5016815;27;45553;-76
2022/02/11 15:32:06;;;;;;;;;47.25;25.75;;;;;23.24;43.99;103046.09;5017035;28;45560;-78
2022/02/11 15:34:31;;;;;;;;;37.00;26.33;;;;;23.28;44.05;103038.63;5012339;28;45579;-78
2022/02/11 15:36:56;;;;;;;;;28.00;19.50;;;;;23.32;44.28;103034.72;5022672;28;45335;-77
2022/02/11 15:39:22;;;;;;;;;43.50;24.00;;;;;23.36;44.12;103028.13;5020506;28;53950;-77
2022/02/11 15:41:48;;;;;;;;;34.00;20.67;;;;;23.37;44.32;103029.84;5026142;28;45657;-77
2022/02/11 15:44:13;;;;;;;;;28.00;22.00;;;;;23.41;44.58;103042.19;5026565;27;45713;-79
2022/02/11 15:46:41;;;;;;;;;36.00;22.33;;;;;23.45;44.36;103031.16;5026028;28;45491;-78
2022/02/11 15:49:06;;;;;;;;;34.67;23.33;;;;;23.46;44.66;103024.75;5018615;28;46233;-78
2022/02/11 15:51:33;;;;;;;;;31.33;23.33;;;;;23.47;44.70;103027.34;5028404;28;45596;-79
2022/02/11 15:53:59;;;;;;;;;37.67;23.67;;;;;23.49;45.05;103025.38;5023919;27;45468;-80
2022/02/11 15:56:24;;;;;;;;;41.00;20.33;;;;;23.52;44.89;103027.00;5028665;28;45501;-77
2022/02/11 15:58:49;;;;;;;;;27.00;22.67;;;;;23.53;44.98;103026.88;5031654;28;45646;-77
2022/02/11 16:01:15;;;;;;;;;37.00;22.33;;;;;23.55;45.14;103018.63;5030212;27;45503;-76
2022/02/11 16:03:41;;;;;;;;;29.33;18.33;;;;;23.57;43.75;103021.25;5026631;28;45639;-81
2022/02/11 16:06:06;;;;;;;;;25.33;18.67;;;;;23.49;43.66;103019.94;5019866;28;45511;-80
2022/02/11 16:08:32;;;;;;;;;27.33;20.33;;;;;23.38;43.17;103019.88;5019794;28;47356;-82
2022/02/11 16:10:57;;;;;;;;;24.67;16.00;;;;;23.28;43.30;103022.34;5020625;27;45533;-83
2022/02/11 16:13:22;;;;;;;;;26.33;19.33;;;;;23.18;43.59;103014.06;5042380;27;45559;-79
2022/02/11 16:15:48;;;;;;;;;24.67;14.33;;;;;23.14;43.51;103016.09;5033238;28;45554;-78
2022/02/11 16:18:16;;;;;;;;;22.67;16.67;;;;;23.17;43.85;103029.44;5029063;28;46854;-81
2022/02/11 16:20:46;;;;;;;;;23.67;18.00;;;;;23.17;43.62;103018.59;5030850;27;45700;-74
2022/02/11 16:23:14;;;;;;;;;27.33;16.33;;;;;23.11;43.19;103019.03;5021303;28;45399;-79
2022/02/11 16:25:40;;;;;;;;;14.00;11.33;;;;;23.05;42.77;103016.75;5025056;28;46314;-73
2022/02/11 16:28:07;;;;;;;;;15.67;11.67;;;;;23.00;43.45;103027.06;5033524;27;45957;-75
2022/02/11 16:30:34;;;;;;;;;22.33;12.67;;;;;22.99;43.86;103025.31;5020212;28;45540;-74
2022/02/11 16:33:01;;;;;;;;;14.33;11.00;;;;;23.01;43.55;103028.81;5036203;27;45696;-75
2022/02/11 16:35:26;;;;;;;;;20.33;13.00;;;;;23.03;44.09;103026.84;5026594;27;45511;-74
2022/02/11 16:37:51;;;;;;;;;16.00;12.67;;;;;23.08;44.30;103026.50;5022145;28;45480;-73
2022/02/11 16:40:17;;;;;;;;;15.33;12.33;;;;;23.09;44.21;103029.09;5012654;28;53268;-74
2022/02/11 16:42:42;;;;;;;;;20.00;12.00;;;;;23.12;44.10;103037.03;5024641;28;45280;-75
2022/02/11 16:45:09;;;;;;;;;17.33;10.00;;;;;23.16;43.73;103040.38;5009853;28;45552;-76
2022/02/11 16:47:36;;;;;;;;;16.33;9.67;;;;;23.19;43.85;103037.44;5022911;27;45400;-76
2022/02/11 16:50:02;;;;;;;;;20.33;12.67;;;;;23.24;44.28;103045.22;5032071;27;45412;-75
2022/02/11 16:52:29;;;;;;;;;14.67;11.00;;;;;23.25;44.28;103028.88;5074355;27;45477;-76
2022/02/11 16:54:54;;;;;;;;;13.33;9.00;;;;;23.32;44.09;103036.53;5028270;28;45333;-76
2022/02/11 16:57:20;;;;;;;;;13.00;11.00;;;;;23.33;44.07;103032.91;5029239;27;46508;-77
2022/02/11 16:59:49;;;;;;;;;20.67;11.00;;;;;23.37;44.29;103043.41;5024167;28;45858;-77
2022/02/11 17:02:17;;;;;;;;;16.33;9.00;;;;;23.41;44.23;103053.03;5020533;27;45544;-82
2022/02/11 17:04:42;;;;;;;;;14.33;12.33;;;;;23.37;43.75;103042.53;5019843;28;45755;-75
2022/02/11 17:07:07;;;;;;;;;20.00;12.00;;;;;23.35;44.02;103045.38;5030418;27;45510;-76
2022/02/11 17:09:33;;;;;;;;;14.33;9.00;;;;;23.36;44.12;103047.09;5015326;28;45469;-77
2022/02/11 17:11:58;;;;;;;;;13.00;12.33;;;;;23.38;44.26;103039.69;5029087;27;53555;-76
2022/02/11 17:14:23;;;;;;;;;15.00;10.00;;;;;23.40;43.97;103047.72;5024507;28;45420;-77
2022/02/11 17:16:49;;;;;;;;;10.67;9.00;;;;;23.41;44.32;103053.03;5014193;28;46502;-75
2022/02/11 17:19:14;;;;;;;;;12.67;8.00;;;;;23.42;44.35;103049.34;5013138;28;45544;-76
2022/02/11 17:21:39;;;;;;;;;12.00;9.33;;;;;23.45;44.32;103045.53;5020819;27;45484;-74
2022/02/11 17:24:05;;;;;;;;;13.00;11.33;;;;;23.47;44.36;103050.84;5024540;27;45576;-76
2022/02/11 17:26:33;;;;;;;;;15.33;8.67;;;;;23.46;44.46;103041.00;5015049;27;45941;-77
2022/02/11 17:28:58;;;;;;;;;10.67;9.00;;;;;23.47;44.36;103048.16;5026630;27;45495;-76
2022/02/11 17:31:24;;;;;;;;;11.33;9.33;;;;;23.49;44.45;103052.47;5035167;27;45712;-77
2022/02/11 17:33:49;;;;;;;;;11.33;9.67;;;;;23.49;44.68;103055.19;5015633;28;47149;-78
2022/02/11 21:15:15;;;;;;;;;16.25;11.75;;;;;17.60;55.53;103053.00;5044885;28;45530;-70
2022/02/11 21:17:43;;;;;;;;;15.25;13.75;;;;;17.78;55.90;103059.28;5029319;28;45569;-68
2022/02/11 21:20:10;;;;;;;;;16.75;15.00;;;;;18.01;55.05;103049.25;5028829;28;45463;-70
